aviador You're here:

KNMM Decoded Metar

MERIDIAN in MS, USA
Report Time2017-07-24 15:56:00
UTC Time2017-07-24 16:36:46
Flight Rules mvfr MVFR
Wind240° at 03 kt
W.Decomp.*RWY 28: 2.3 kt HW 2 kt LCW
RWY 19: 2.0 kt HW 2.3 kt RCW
W.Rank240° ranks 21
Current wind is below 240° avg. (5.3)
Visibility9999 m
Phenomena:N/A
Clouds:Overcast 022 Hf
Expected CloudBase > 2,800 ft AGL from Temp-Dew spread
Ceiling2,200 ft
Temp29°C (ISA +15)
Dew Point22°C (66% RH)
Heat Index32.0°C
QNH1016 hPa
Density Alt2,247 ft
Elevation318 ft
Report Wrong Elevation
Raw Report
KNMM 241556Z 24003KT 10SM OVC022 29/22 A3000 RMK AO2 SLP166
T02890217 $=

Extra information for KNMM:More info

Metar Taf Metar & Taf Last 4 Metars F.Rules Stats Wind Profile Meteogram Temp Stats Airport Information Weather charts Add Link Nearby VenuesMetar ALERT Operation Metar Decoded Social comments

AIRNAV info for KNMM